createdAt,value
2019-03-11T00:02:09.960Z,1.7
2019-03-11T00:07:12.520Z,1.7
2019-03-11T00:12:14.880Z,1.7
2019-03-11T00:17:17.414Z,1.6
2019-03-11T00:22:19.797Z,1.7
2019-03-11T00:27:22.262Z,1.7
2019-03-11T00:32:24.746Z,1.7
2019-03-11T00:37:27.210Z,1.7
2019-03-11T00:42:29.749Z,1.7
2019-03-11T00:47:32.218Z,1.8
2019-03-11T00:52:34.657Z,1.8
2019-03-11T00:57:37.085Z,1.8
2019-03-11T01:02:39.551Z,1.9
2019-03-11T01:07:47.013Z,1.9
2019-03-11T01:12:44.489Z,1.9
2019-03-11T01:17:46.955Z,2
2019-03-11T01:22:49.422Z,2
2019-03-11T01:27:51.883Z,2
2019-03-11T01:32:54.312Z,1.9
2019-03-11T01:37:56.804Z,1.9
2019-03-11T01:42:59.241Z,1.9
2019-03-11T01:48:02.110Z,1.8
2019-03-11T01:53:04.184Z,1.7
2019-03-11T01:58:06.793Z,1.6
2019-03-11T02:03:09.172Z,1.5
2019-03-11T02:08:11.596Z,1.4
2019-03-11T02:13:14.074Z,1.3
2019-03-11T02:18:16.819Z,1.3
2019-03-11T02:23:18.978Z,1.3
2019-03-11T02:28:21.547Z,1.3
2019-03-11T02:33:23.907Z,1.3
2019-03-11T02:38:26.484Z,1.4
2019-03-11T02:43:28.886Z,1.6
2019-03-11T02:48:31.736Z,1.8
2019-03-11T02:53:33.739Z,1.9
2019-03-11T02:58:36.224Z,1.9
2019-03-11T03:03:38.706Z,1.9
2019-03-11T03:08:41.174Z,1.9
2019-03-11T03:13:43.639Z,1.9
2019-03-11T03:18:46.383Z,1.9
2019-03-11T03:23:48.547Z,1.8
2019-03-11T03:28:51.017Z,1.8
2019-03-11T03:33:53.485Z,1.8
2019-03-11T03:38:55.961Z,1.6
2019-03-11T03:43:58.925Z,1.5
2019-03-11T03:49:00.948Z,1.4
2019-03-11T03:54:03.333Z,1.4
2019-03-11T03:59:05.781Z,1.4
2019-03-11T04:04:08.272Z,1.3
2019-03-11T04:09:10.761Z,1.3
2019-03-11T04:14:13.178Z,1.2
2019-03-11T04:19:15.746Z,1.1
2019-03-11T04:24:18.103Z,1.1
2019-03-11T04:29:20.703Z,1.1
2019-03-11T04:34:23.050Z,1.2
2019-03-11T04:39:25.487Z,1.2
2019-03-11T04:44:27.950Z,1.2
2019-03-11T04:49:30.522Z,1.2
2019-03-11T04:54:32.913Z,1.2
2019-03-11T04:59:35.350Z,1.3
2019-03-11T05:04:37.815Z,1.4
2019-03-11T05:09:40.312Z,1.4
2019-03-11T05:14:42.727Z,1.4
2019-03-11T05:19:45.207Z,1.5
2019-03-11T05:24:47.698Z,1.5
2019-03-11T05:29:50.133Z,1.6
2019-03-11T05:34:52.603Z,1.6
2019-03-11T05:39:55.057Z,1.7
2019-03-11T05:44:57.527Z,1.8
2019-03-11T05:49:59.991Z,1.9
2019-03-11T05:55:02.497Z,2
2019-03-11T06:00:04.978Z,2
2019-03-11T06:05:07.404Z,2
2019-03-11T06:10:09.848Z,2
2019-03-11T06:15:12.339Z,1.9
2019-03-11T06:20:14.872Z,1.7
2019-03-11T06:25:17.416Z,1.6
2019-03-11T06:30:19.707Z,1.5
2019-03-11T06:35:22.183Z,1.5
2019-03-11T06:40:24.668Z,1.5
2019-03-11T06:45:27.119Z,1.5
2019-03-11T06:50:29.888Z,1.5
2019-03-11T06:55:32.026Z,1.6
2019-03-11T07:00:34.551Z,1.6
2019-03-11T07:05:36.994Z,1.6
2019-03-11T07:20:44.687Z,1.2
2019-03-11T07:25:46.821Z,1.2
2019-03-11T07:30:49.271Z,1.2
2019-03-11T07:35:51.735Z,1.2
2019-03-11T07:40:54.192Z,1.1
2019-03-11T07:45:56.700Z,1.1
2019-03-11T07:50:59.213Z,1.2
2019-03-11T07:56:01.615Z,1.3
2019-03-11T08:01:04.045Z,1.5
2019-03-11T08:06:06.510Z,1.7
2019-03-11T08:11:08.975Z,1.8
2019-03-11T08:16:11.448Z,1.9
2019-03-11T08:21:14.277Z,1.9
2019-03-11T08:26:16.462Z,2
2019-03-11T08:31:19.045Z,2
2019-03-11T08:36:21.295Z,2
2019-03-11T08:41:23.903Z,2.1
2019-03-11T08:46:26.258Z,2.3
2019-03-11T08:51:29.071Z,2.6
2019-03-11T08:56:31.262Z,2.9
2019-03-11T09:01:33.610Z,3.3
2019-03-11T09:06:36.267Z,3.6
2019-03-11T09:11:38.546Z,3.8
2019-03-11T09:16:41.004Z,4.3
2019-03-11T09:21:43.767Z,4.8
2019-03-11T09:26:45.921Z,5.8
2019-03-11T09:31:48.389Z,7.3
2019-03-11T09:36:50.849Z,8.8
2019-03-11T09:41:53.290Z,8.9
2019-03-11T09:46:55.818Z,9.2
2019-03-11T09:51:58.678Z,9.6
2019-03-11T09:57:00.678Z,11.4
2019-03-11T10:02:03.187Z,12.2
2019-03-11T10:07:05.585Z,14
2019-03-11T10:12:08.019Z,14.3
2019-03-11T10:17:10.468Z,14.5
2019-03-11T10:22:13.400Z,16.1
2019-03-11T10:27:15.392Z,16.5
2019-03-11T10:32:17.864Z,16.3
2019-03-11T10:37:20.516Z,15.8
2019-03-11T10:42:22.809Z,14.5
2019-03-11T10:47:25.219Z,13.2
2019-03-11T10:52:27.794Z,11.6
2019-03-11T10:57:30.166Z,11.1
2019-03-11T11:02:32.630Z,13.9
2019-03-11T11:07:35.145Z,16
2019-03-11T11:12:37.536Z,16.5
2019-03-11T11:17:39.980Z,16.1
2019-03-11T11:22:42.816Z,16.4
2019-03-11T11:27:44.902Z,14.9
2019-03-11T11:32:47.387Z,12.4
2019-03-11T11:37:49.809Z,11.6
2019-03-11T11:42:52.253Z,9.8
2019-03-11T11:47:54.759Z,8.3
2019-03-11T11:52:57.259Z,7.5
2019-03-11T11:57:59.647Z,7
2019-03-11T12:03:02.133Z,7
2019-03-11T12:08:04.547Z,8.3
2019-03-11T12:13:07.108Z,9.9
2019-03-11T12:18:09.471Z,10.3
2019-03-11T12:23:12.229Z,8
2019-03-11T12:28:14.414Z,6.1
2019-03-11T12:33:16.833Z,4.6
2019-03-11T12:38:19.370Z,3.8
2019-03-11T12:43:21.776Z,3.6
2019-03-11T12:48:24.194Z,3.7
2019-03-11T12:53:27.041Z,3.8
2019-03-11T12:58:29.129Z,3.2
2019-03-11T13:03:31.625Z,2.6
2019-03-11T13:08:34.043Z,2.4
2019-03-11T13:13:36.766Z,2.2
2019-03-11T13:18:39.001Z,2.2
2019-03-11T13:23:41.900Z,2.2
2019-03-11T13:28:43.919Z,2.5
2019-03-11T13:33:46.432Z,2.7
2019-03-11T13:38:48.891Z,3.3
2019-03-11T13:43:51.310Z,3.9
2019-03-11T13:48:53.753Z,4.6
2019-03-11T13:53:56.530Z,4.5
2019-03-11T13:58:58.933Z,3.6
2019-03-11T14:04:01.214Z,2.8
2019-03-11T14:09:03.631Z,2.5
2019-03-11T14:14:06.102Z,2.7
2019-03-11T14:19:08.549Z,3.1
2019-03-11T14:24:11.127Z,3.4
2019-03-11T14:29:13.472Z,3.6
2019-03-11T14:34:16.001Z,3.9
2019-03-11T14:39:18.353Z,4.1
2019-03-11T14:44:20.808Z,4
2019-03-11T14:49:23.287Z,3.6
2019-03-11T14:54:25.744Z,3.5
2019-03-11T14:59:28.177Z,3.5
2019-03-11T15:04:30.671Z,3.7
2019-03-11T15:09:33.121Z,3.8
2019-03-11T15:14:35.723Z,4.1
2019-03-11T15:19:38.019Z,4
2019-03-11T15:24:40.561Z,3.9
2019-03-11T15:29:42.933Z,3.8
2019-03-11T15:34:45.392Z,3.6
2019-03-11T15:39:47.852Z,3.4
2019-03-11T15:44:50.367Z,3.1
2019-03-11T15:49:52.789Z,2.9
2019-03-11T15:54:55.631Z,2.8
2019-03-11T15:59:57.707Z,2.7
2019-03-11T16:05:00.267Z,2.6
2019-03-11T16:10:02.610Z,2.6
2019-03-11T16:15:05.096Z,2.6
2019-03-11T16:20:07.552Z,2.5
2019-03-11T16:25:10.005Z,2.5
2019-03-11T16:30:12.532Z,2.5
2019-03-11T16:35:14.954Z,2.4
2019-03-11T16:40:17.452Z,2.4
2019-03-11T16:45:19.957Z,2.3
2019-03-11T16:50:22.331Z,2.3
2019-03-11T16:55:24.783Z,2.3
2019-03-11T17:00:27.255Z,2.2
2019-03-11T17:05:29.744Z,2.3
2019-03-11T17:10:32.187Z,2.3
2019-03-11T17:15:34.805Z,2.2
2019-03-11T17:20:37.153Z,2.1
2019-03-11T17:25:39.656Z,2
2019-03-11T17:30:42.060Z,2
2019-03-11T17:35:44.519Z,1.9
2019-03-11T17:40:47.003Z,1.8
2019-03-11T17:45:49.445Z,1.8
2019-03-11T17:50:51.913Z,1.8
2019-03-11T17:55:54.395Z,1.7
2019-03-11T18:00:56.857Z,1.7
2019-03-11T18:06:00.521Z,1.7
2019-03-11T18:11:01.774Z,1.7
2019-03-11T18:16:04.336Z,1.7
2019-03-11T18:21:07.038Z,1.6
2019-03-11T18:26:09.222Z,1.6
2019-03-11T18:31:11.770Z,1.6
2019-03-11T18:36:14.102Z,1.7
2019-03-11T18:41:16.647Z,1.7
2019-03-11T18:46:19.081Z,1.7
2019-03-11T18:51:21.791Z,1.7
2019-03-11T18:56:24.039Z,1.7
2019-03-11T19:01:26.419Z,1.6
2019-03-11T19:06:28.908Z,1.6
2019-03-11T19:11:31.419Z,1.5
2019-03-11T19:16:33.811Z,1.5
2019-03-11T19:21:36.668Z,1.5
2019-03-11T19:26:38.795Z,1.5
2019-03-11T19:31:41.303Z,1.5
2019-03-11T19:36:43.916Z,1.6
2019-03-11T19:41:46.212Z,1.6
2019-03-11T19:46:48.679Z,1.6
2019-03-11T19:51:51.226Z,1.7
2019-03-11T19:56:53.560Z,1.6
2019-03-11T20:01:56.048Z,1.6
2019-03-11T20:06:58.645Z,1.7
2019-03-11T20:12:00.991Z,1.7
2019-03-11T20:17:03.425Z,1.8
2019-03-11T20:22:05.888Z,1.8
2019-03-11T20:27:08.303Z,1.8
2019-03-11T20:32:10.831Z,1.8
2019-03-11T20:37:13.261Z,1.7
2019-03-11T20:42:15.722Z,1.6
2019-03-11T20:47:18.221Z,1.5
2019-03-11T20:52:20.687Z,1.4
2019-03-11T20:57:23.121Z,1.5
2019-03-11T21:02:25.596Z,1.5
2019-03-11T21:07:28.056Z,1.5
2019-03-11T21:12:30.489Z,1.5
2019-03-11T21:17:33.166Z,1.5
2019-03-11T21:22:35.737Z,1.5
2019-03-11T21:27:38.206Z,1.6
2019-03-11T21:32:40.420Z,1.6
2019-03-11T21:37:42.930Z,1.6
2019-03-11T21:42:45.472Z,1.6
2019-03-11T21:47:50.697Z,1.6
2019-03-11T21:52:50.252Z,1.6
2019-03-11T21:57:52.778Z,1.6
2019-03-11T22:02:55.140Z,1.6
2019-03-11T22:07:57.597Z,1.6
2019-03-11T22:13:00.061Z,1.6
2019-03-11T22:18:02.737Z,1.6
2019-03-11T22:23:05.294Z,1.7
2019-03-11T22:28:07.575Z,1.7
2019-03-11T22:33:10.196Z,1.6
2019-03-11T22:38:12.529Z,1.6
2019-03-11T22:43:14.861Z,1.6
2019-03-11T22:48:17.334Z,1.7
2019-03-11T22:53:20.075Z,1.7
2019-03-11T22:58:22.248Z,1.6
2019-03-11T23:03:24.738Z,1.6
2019-03-11T23:08:27.203Z,1.6
2019-03-11T23:13:29.623Z,1.6
2019-03-11T23:18:32.112Z,1.6
2019-03-11T23:23:34.659Z,1.6
2019-03-11T23:28:37.052Z,1.6
2019-03-11T23:33:39.486Z,1.6
2019-03-11T23:38:41.979Z,1.6
2019-03-11T23:43:44.531Z,1.6
2019-03-11T23:48:46.860Z,1.6
2019-03-11T23:53:49.360Z,1.6
2019-03-11T23:58:51.794Z,1.6
